sensor_id;sensor_type;location;lat;lon;timestamp;pressure;altitude;pressure_sealevel;temperature;humidity
13050;BME280;6591;51.446;5.404;2022-10-31T00:01:30;101758.72;;;19.67;52.69
13050;BME280;6591;51.446;5.404;2022-10-31T00:03:57;101759.69;;;19.66;52.27
13050;BME280;6591;51.446;5.404;2022-10-31T00:06:24;101752.66;;;19.63;52.53
13050;BME280;6591;51.446;5.404;2022-10-31T00:09:01;101753.13;;;19.57;52.74
13050;BME280;6591;51.446;5.404;2022-10-31T00:11:30;101755.91;;;19.56;52.51
13050;BME280;6591;51.446;5.404;2022-10-31T00:13:58;101751.69;;;19.52;52.46
13050;BME280;6591;51.446;5.404;2022-10-31T00:16:26;101750.84;;;19.51;52.63
13050;BME280;6591;51.446;5.404;2022-10-31T00:18:58;101759.09;;;19.48;52.51
13050;BME280;6591;51.446;5.404;2022-10-31T00:21:26;101755.69;;;19.46;52.74
13050;BME280;6591;51.446;5.404;2022-10-31T00:23:53;101760.25;;;19.44;52.61
13050;BME280;6591;51.446;5.404;2022-10-31T00:26:20;101758.66;;;19.41;52.61
13050;BME280;6591;51.446;5.404;2022-10-31T00:28:47;101756.16;;;19.38;52.57
13050;BME280;6591;51.446;5.404;2022-10-31T00:31:15;101749.16;;;19.36;52.71
13050;BME280;6591;51.446;5.404;2022-10-31T00:33:43;101746.66;;;19.33;52.67
13050;BME280;6591;51.446;5.404;2022-10-31T00:36:14;101750.44;;;19.30;52.70
13050;BME280;6591;51.446;5.404;2022-10-31T00:38:44;101743.31;;;19.29;52.82
13050;BME280;6591;51.446;5.404;2022-10-31T00:41:13;101739.84;;;19.27;52.73
13050;BME280;6591;51.446;5.404;2022-10-31T00:43:42;101739.09;;;19.25;52.93
13050;BME280;6591;51.446;5.404;2022-10-31T00:46:10;101737.47;;;19.23;52.88
13050;BME280;6591;51.446;5.404;2022-10-31T00:48:37;101735.84;;;19.20;53.29
13050;BME280;6591;51.446;5.404;2022-10-31T00:51:04;101743.16;;;19.18;52.95
13050;BME280;6591;51.446;5.404;2022-10-31T00:53:31;101744.97;;;19.18;53.06
13050;BME280;6591;51.446;5.404;2022-10-31T00:55:58;101737.00;;;19.16;53.05
13050;BME280;6591;51.446;5.404;2022-10-31T00:58:25;101738.94;;;19.14;53.15
13050;BME280;6591;51.446;5.404;2022-10-31T01:00:52;101748.00;;;19.13;53.23
13050;BME280;6591;51.446;5.404;2022-10-31T01:03:28;101742.81;;;19.10;53.11
13050;BME280;6591;51.446;5.404;2022-10-31T01:06:08;101737.84;;;19.04;53.07
13050;BME280;6591;51.446;5.404;2022-10-31T01:08:37;101730.72;;;19.03;52.93
13050;BME280;6591;51.446;5.404;2022-10-31T01:11:15;101732.00;;;18.97;52.96
13050;BME280;6591;51.446;5.404;2022-10-31T01:13:44;101734.03;;;18.94;53.23
13050;BME280;6591;51.446;5.404;2022-10-31T01:16:17;101719.03;;;18.90;53.45
13050;BME280;6591;51.446;5.404;2022-10-31T01:18:45;101709.34;;;18.87;53.29
13050;BME280;6591;51.446;5.404;2022-10-31T01:21:33;101729.34;;;18.83;53.64
13050;BME280;6591;51.446;5.404;2022-10-31T01:24:00;101724.63;;;18.87;53.36
13050;BME280;6591;51.446;5.404;2022-10-31T01:26:31;101738.16;;;18.85;53.42
13050;BME280;6591;51.446;5.404;2022-10-31T01:29:05;101730.31;;;18.82;53.32
13050;BME280;6591;51.446;5.404;2022-10-31T01:31:38;101736.00;;;18.78;53.24
13050;BME280;6591;51.446;5.404;2022-10-31T01:34:06;101733.47;;;18.75;53.14
13050;BME280;6591;51.446;5.404;2022-10-31T01:36:37;101737.34;;;18.71;53.19
13050;BME280;6591;51.446;5.404;2022-10-31T01:39:12;101736.78;;;18.66;53.25
13050;BME280;6591;51.446;5.404;2022-10-31T01:41:46;101737.00;;;18.63;53.44
13050;BME280;6591;51.446;5.404;2022-10-31T01:46:41;101737.38;;;18.56;53.40
13050;BME280;6591;51.446;5.404;2022-10-31T01:49:23;101737.72;;;18.50;53.40
13050;BME280;6591;51.446;5.404;2022-10-31T01:51:58;101730.84;;;18.46;53.35
13050;BME280;6591;51.446;5.404;2022-10-31T01:54:34;101738.34;;;18.41;53.20
13050;BME280;6591;51.446;5.404;2022-10-31T01:57:08;101731.41;;;18.37;53.30
13050;BME280;6591;51.446;5.404;2022-10-31T01:59:44;101726.31;;;18.33;53.16
13050;BME280;6591;51.446;5.404;2022-10-31T02:02:13;101723.84;;;18.30;53.09
13050;BME280;6591;51.446;5.404;2022-10-31T02:04:42;101725.88;;;18.26;53.57
13050;BME280;6591;51.446;5.404;2022-10-31T02:07:26;101724.50;;;18.19;53.47
13050;BME280;6591;51.446;5.404;2022-10-31T02:10:00;101723.72;;;18.17;53.69
13050;BME280;6591;51.446;5.404;2022-10-31T02:12:30;101716.81;;;18.13;53.18
13050;BME280;6591;51.446;5.404;2022-10-31T02:15:00;101716.16;;;18.09;53.40
13050;BME280;6591;51.446;5.404;2022-10-31T02:17:29;101716.44;;;18.05;53.42
13050;BME280;6591;51.446;5.404;2022-10-31T02:20:20;101710.59;;;17.98;53.60
13050;BME280;6591;51.446;5.404;2022-10-31T02:26:44;101714.31;;;17.82;53.42
13050;BME280;6591;51.446;5.404;2022-10-31T02:29:53;101722.94;;;17.72;53.59
13050;BME280;6591;51.446;5.404;2022-10-31T02:32:54;101728.69;;;17.66;53.59
13050;BME280;6591;51.446;5.404;2022-10-31T02:35:37;101717.94;;;17.66;53.44
13050;BME280;6591;51.446;5.404;2022-10-31T02:41:31;101719.44;;;17.56;53.54
13050;BME280;6591;51.446;5.404;2022-10-31T02:44:36;101715.38;;;17.49;53.95
13050;BME280;6591;51.446;5.404;2022-10-31T02:47:14;101717.09;;;17.50;53.79
13050;BME280;6591;51.446;5.404;2022-10-31T02:49:57;101713.63;;;17.48;54.30
13050;BME280;6591;51.446;5.404;2022-10-31T02:52:32;101709.81;;;17.52;54.35
13050;BME280;6591;51.446;5.404;2022-10-31T02:58:08;101713.88;;;17.59;54.40
13050;BME280;6591;51.446;5.404;2022-10-31T03:01:34;101709.09;;;17.64;54.79
13050;BME280;6591;51.446;5.404;2022-10-31T03:07:05;101708.66;;;17.72;54.44
13050;BME280;6591;51.446;5.404;2022-10-31T03:09:55;101705.66;;;17.76;54.39
13050;BME280;6591;51.446;5.404;2022-10-31T03:12:58;101710.84;;;17.79;54.43
13050;BME280;6591;51.446;5.404;2022-10-31T03:15:32;101710.47;;;17.86;54.42
13050;BME280;6591;51.446;5.404;2022-10-31T03:18:21;101707.78;;;17.86;54.39
13050;BME280;6591;51.446;5.404;2022-10-31T03:21:18;101705.22;;;17.84;54.24
13050;BME280;6591;51.446;5.404;2022-10-31T03:23:50;101710.31;;;17.89;54.00
13050;BME280;6591;51.446;5.404;2022-10-31T03:26:21;101702.31;;;17.87;54.10
13050;BME280;6591;51.446;5.404;2022-10-31T03:29:06;101708.00;;;17.83;54.04
13050;BME280;6591;51.446;5.404;2022-10-31T03:32:11;101703.94;;;17.75;53.94
13050;BME280;6591;51.446;5.404;2022-10-31T03:34:43;101708.16;;;17.79;53.90
13050;BME280;6591;51.446;5.404;2022-10-31T03:37:15;101705.66;;;17.76;53.95
13050;BME280;6591;51.446;5.404;2022-10-31T03:39:46;101704.88;;;17.74;54.20
13050;BME280;6591;51.446;5.404;2022-10-31T03:42:21;101708.72;;;17.70;53.85
13050;BME280;6591;51.446;5.404;2022-10-31T03:45:04;101700.88;;;17.67;54.34
13050;BME280;6591;51.446;5.404;2022-10-31T03:47:38;101699.13;;;17.66;54.43
13050;BME280;6591;51.446;5.404;2022-10-31T03:50:08;101698.19;;;17.67;54.33
13050;BME280;6591;51.446;5.404;2022-10-31T03:52:47;101698.34;;;17.64;54.90
13050;BME280;6591;51.446;5.404;2022-10-31T03:55:41;101700.28;;;17.62;54.56
13050;BME280;6591;51.446;5.404;2022-10-31T03:58:21;101706.25;;;17.67;54.39
13050;BME280;6591;51.446;5.404;2022-10-31T04:00:55;101696.44;;;17.66;54.76
13050;BME280;6591;51.446;5.404;2022-10-31T04:03:30;101703.56;;;17.67;54.81
13050;BME280;6591;51.446;5.404;2022-10-31T04:06:05;101698.94;;;17.69;54.71
13050;BME280;6591;51.446;5.404;2022-10-31T04:08:44;101699.81;;;17.70;54.75
13050;BME280;6591;51.446;5.404;2022-10-31T04:11:20;101711.41;;;17.70;54.73
13050;BME280;6591;51.446;5.404;2022-10-31T04:14:08;101712.28;;;17.71;54.61
13050;BME280;6591;51.446;5.404;2022-10-31T04:16:36;101709.69;;;17.69;54.63
13050;BME280;6591;51.446;5.404;2022-10-31T04:19:04;101712.38;;;17.69;54.97
13050;BME280;6591;51.446;5.404;2022-10-31T04:21:31;101710.66;;;17.68;54.89
13050;BME280;6591;51.446;5.404;2022-10-31T04:23:58;101720.44;;;17.69;55.17
13050;BME280;6591;51.446;5.404;2022-10-31T04:26:28;101716.69;;;17.72;55.14
13050;BME280;6591;51.446;5.404;2022-10-31T04:28:54;101715.63;;;17.74;55.12
13050;BME280;6591;51.446;5.404;2022-10-31T04:31:21;101717.38;;;17.75;55.32
13050;BME280;6591;51.446;5.404;2022-10-31T04:33:49;101715.47;;;17.77;54.77
13050;BME280;6591;51.446;5.404;2022-10-31T04:36:17;101710.75;;;17.81;55.03
13050;BME280;6591;51.446;5.404;2022-10-31T04:38:44;101716.03;;;17.83;55.35
13050;BME280;6591;51.446;5.404;2022-10-31T04:41:24;101713.16;;;17.86;55.25
13050;BME280;6591;51.446;5.404;2022-10-31T04:44:01;101707.63;;;17.89;55.08
13050;BME280;6591;51.446;5.404;2022-10-31T04:46:27;101705.78;;;17.89;55.05
13050;BME280;6591;51.446;5.404;2022-10-31T04:48:56;101710.09;;;17.92;55.01
13050;BME280;6591;51.446;5.404;2022-10-31T04:51:23;101704.81;;;17.90;54.75
13050;BME280;6591;51.446;5.404;2022-10-31T04:53:51;101703.97;;;17.90;54.75
13050;BME280;6591;51.446;5.404;2022-10-31T04:56:27;101704.16;;;17.87;54.97
13050;BME280;6591;51.446;5.404;2022-10-31T04:59:04;101706.09;;;17.85;54.89
13050;BME280;6591;51.446;5.404;2022-10-31T05:01:44;101700.72;;;17.85;55.07
13050;BME280;6591;51.446;5.404;2022-10-31T05:04:11;101703.41;;;17.85;55.06
13050;BME280;6591;51.446;5.404;2022-10-31T05:06:38;101700.72;;;17.85;55.10
13050;BME280;6591;51.446;5.404;2022-10-31T05:09:05;101700.59;;;17.86;55.15
13050;BME280;6591;51.446;5.404;2022-10-31T05:11:32;101699.72;;;17.86;54.70
13050;BME280;6591;51.446;5.404;2022-10-31T05:14:15;101697.25;;;17.83;54.70
13050;BME280;6591;51.446;5.404;2022-10-31T05:17:02;101699.16;;;17.81;54.52
13050;BME280;6591;51.446;5.404;2022-10-31T05:19:51;101696.66;;;17.77;54.77
13050;BME280;6591;51.446;5.404;2022-10-31T05:22:53;101703.28;;;17.72;54.64
13050;BME280;6591;51.446;5.404;2022-10-31T05:25:24;101698.84;;;17.71;54.45
13050;BME280;6591;51.446;5.404;2022-10-31T05:27:54;101691.75;;;17.70;54.97
13050;BME280;6591;51.446;5.404;2022-10-31T05:30:26;101688.19;;;17.69;55.05
13050;BME280;6591;51.446;5.404;2022-10-31T05:32:54;101689.84;;;17.72;55.29
13050;BME280;6591;51.446;5.404;2022-10-31T05:35:44;101685.34;;;17.72;55.03
13050;BME280;6591;51.446;5.404;2022-10-31T05:38:32;101684.38;;;17.73;55.26
13050;BME280;6591;51.446;5.404;2022-10-31T05:41:08;101682.56;;;17.74;55.35
13050;BME280;6591;51.446;5.404;2022-10-31T05:43:38;101684.25;;;17.75;55.05
13050;BME280;6591;51.446;5.404;2022-10-31T05:46:06;101683.41;;;17.74;55.06
13050;BME280;6591;51.446;5.404;2022-10-31T05:49:05;101687.06;;;17.73;54.75
13050;BME280;6591;51.446;5.404;2022-10-31T05:51:50;101680.91;;;17.71;54.66
13050;BME280;6591;51.446;5.404;2022-10-31T05:54:18;101672.06;;;17.69;54.95
13050;BME280;6591;51.446;5.404;2022-10-31T05:56:45;101674.00;;;17.67;54.74
13050;BME280;6591;51.446;5.404;2022-10-31T05:59:12;101665.25;;;17.64;54.92
13050;BME280;6591;51.446;5.404;2022-10-31T06:01:40;101667.19;;;17.62;54.86
13050;BME280;6591;51.446;5.404;2022-10-31T06:04:22;101663.81;;;17.58;55.14
13050;BME280;6591;51.446;5.404;2022-10-31T06:06:49;101662.16;;;17.56;54.94
13050;BME280;6591;51.446;5.404;2022-10-31T06:09:16;101664.94;;;17.54;55.05
13050;BME280;6591;51.446;5.404;2022-10-31T06:11:44;101659.75;;;17.51;54.97
13050;BME280;6591;51.446;5.404;2022-10-31T06:14:30;101664.47;;;17.48;55.02
13050;BME280;6591;51.446;5.404;2022-10-31T06:16:57;101668.97;;;17.47;55.06
13050;BME280;6591;51.446;5.404;2022-10-31T06:19:43;101657.72;;;17.41;55.44
13050;BME280;6591;51.446;5.404;2022-10-31T06:22:14;101658.59;;;17.41;55.04
13050;BME280;6591;51.446;5.404;2022-10-31T06:24:42;101659.53;;;17.40;55.31
13050;BME280;6591;51.446;5.404;2022-10-31T06:27:22;101665.09;;;17.37;55.24
13050;BME280;6591;51.446;5.404;2022-10-31T06:29:49;101662.44;;;17.37;55.35
13050;BME280;6591;51.446;5.404;2022-10-31T06:32:27;101659.75;;;17.37;55.56
13050;BME280;6591;51.446;5.404;2022-10-31T06:34:54;101665.69;;;17.42;55.46
13050;BME280;6591;51.446;5.404;2022-10-31T06:37:22;101666.44;;;17.44;55.95
13050;BME280;6591;51.446;5.404;2022-10-31T06:39:50;101669.81;;;17.48;55.74
13050;BME280;6591;51.446;5.404;2022-10-31T06:42:17;101670.50;;;17.51;55.54
13050;BME280;6591;51.446;5.404;2022-10-31T06:44:45;101668.59;;;17.53;55.52
13050;BME280;6591;51.446;5.404;2022-10-31T06:47:30;101664.06;;;17.54;55.88
13050;BME280;6591;51.446;5.404;2022-10-31T06:50:08;101663.97;;;17.55;55.69
13050;BME280;6591;51.446;5.404;2022-10-31T06:52:35;101666.50;;;17.58;55.71
13050;BME280;6591;51.446;5.404;2022-10-31T06:55:03;101668.94;;;17.63;55.84
13050;BME280;6591;51.446;5.404;2022-10-31T06:57:32;101664.22;;;17.66;56.01
13050;BME280;6591;51.446;5.404;2022-10-31T06:59:59;101667.47;;;17.71;55.79
13050;BME280;6591;51.446;5.404;2022-10-31T07:02:35;101656.53;;;17.74;55.84
13050;BME280;6591;51.446;5.404;2022-10-31T07:05:04;101660.66;;;17.80;55.70
13050;BME280;6591;51.446;5.404;2022-10-31T07:07:32;101665.78;;;17.85;55.76
13050;BME280;6591;51.446;5.404;2022-10-31T07:09:59;101661.06;;;17.88;55.96
13050;BME280;6591;51.446;5.404;2022-10-31T07:12:47;101660.78;;;17.93;55.95
13050;BME280;6591;51.446;5.404;2022-10-31T07:15:14;101668.63;;;17.96;56.32
13050;BME280;6591;51.446;5.404;2022-10-31T07:17:41;101669.13;;;18.02;55.74
13050;BME280;6591;51.446;5.404;2022-10-31T07:20:08;101655.38;;;18.07;56.20
13050;BME280;6591;51.446;5.404;2022-10-31T07:22:37;101662.19;;;18.12;56.21
13050;BME280;6591;51.446;5.404;2022-10-31T07:25:07;101663.63;;;18.18;56.13
13050;BME280;6591;51.446;5.404;2022-10-31T07:27:52;101673.22;;;18.22;56.03
13050;BME280;6591;51.446;5.404;2022-10-31T07:30:20;101671.00;;;18.29;56.16
13050;BME280;6591;51.446;5.404;2022-10-31T07:32:51;101677.72;;;18.36;56.20
13050;BME280;6591;51.446;5.404;2022-10-31T07:35:24;101675.47;;;18.42;56.40
13050;BME280;6591;51.446;5.404;2022-10-31T07:38:08;101677.69;;;18.50;56.41
13050;BME280;6591;51.446;5.404;2022-10-31T07:40:36;101674.56;;;18.57;56.05
13050;BME280;6591;51.446;5.404;2022-10-31T07:43:04;101676.63;;;18.67;56.31
13050;BME280;6591;51.446;5.404;2022-10-31T07:45:56;101669.03;;;18.73;56.35
13050;BME280;6591;51.446;5.404;2022-10-31T07:48:46;101670.22;;;18.82;56.06
13050;BME280;6591;51.446;5.404;2022-10-31T07:51:31;101677.91;;;18.88;56.24
13050;BME280;6591;51.446;5.404;2022-10-31T07:54:16;101676.50;;;18.95;55.96
13050;BME280;6591;51.446;5.404;2022-10-31T07:56:43;101682.25;;;19.03;55.94
13050;BME280;6591;51.446;5.404;2022-10-31T07:59:10;101679.91;;;19.11;56.23
13050;BME280;6591;51.446;5.404;2022-10-31T08:01:37;101682.19;;;19.17;55.97
13050;BME280;6591;51.446;5.404;2022-10-31T08:04:24;101682.53;;;19.25;55.85
13050;BME280;6591;51.446;5.404;2022-10-31T08:07:14;101683.63;;;19.35;56.18
13050;BME280;6591;51.446;5.404;2022-10-31T08:09:45;101691.97;;;19.45;56.44
13050;BME280;6591;51.446;5.404;2022-10-31T08:12:20;101685.84;;;19.56;56.20
13050;BME280;6591;51.446;5.404;2022-10-31T08:14:47;101678.84;;;19.66;56.52
13050;BME280;6591;51.446;5.404;2022-10-31T08:17:17;101677.00;;;19.79;56.57
13050;BME280;6591;51.446;5.404;2022-10-31T08:19:53;101663.31;;;19.95;56.77
13050;BME280;6591;51.446;5.404;2022-10-31T08:22:25;101668.47;;;20.10;56.55
13050;BME280;6591;51.446;5.404;2022-10-31T08:24:52;101682.47;;;20.28;56.84
13050;BME280;6591;51.446;5.404;2022-10-31T08:27:20;101679.31;;;20.47;57.06
13050;BME280;6591;51.446;5.404;2022-10-31T08:29:47;101667.06;;;20.66;56.92
13050;BME280;6591;51.446;5.404;2022-10-31T08:32:14;101670.00;;;20.87;57.01
13050;BME280;6591;51.446;5.404;2022-10-31T08:35:07;101653.88;;;21.09;56.69
13050;BME280;6591;51.446;5.404;2022-10-31T08:37:57;101639.25;;;21.25;56.02
13050;BME280;6591;51.446;5.404;2022-10-31T08:40:28;101620.84;;;21.30;56.21
13050;BME280;6591;51.446;5.404;2022-10-31T08:45:24;101611.50;;;21.34;55.68
13050;BME280;6591;51.446;5.404;2022-10-31T08:47:51;101610.75;;;21.32;56.05
13050;BME280;6591;51.446;5.404;2022-10-31T08:50:18;101636.03;;;21.31;56.21
13050;BME280;6591;51.446;5.404;2022-10-31T08:52:46;101645.88;;;21.32;56.22
13050;BME280;6591;51.446;5.404;2022-10-31T08:55:37;101639.00;;;21.28;56.33
13050;BME280;6591;51.446;5.404;2022-10-31T08:58:19;101629.91;;;21.29;56.54
13050;BME280;6591;51.446;5.404;2022-10-31T09:00:53;101621.81;;;21.29;56.12
13050;BME280;6591;51.446;5.404;2022-10-31T09:03:28;101621.91;;;21.27;56.27
13050;BME280;6591;51.446;5.404;2022-10-31T09:05:58;101638.75;;;21.31;56.57
13050;BME280;6591;51.446;5.404;2022-10-31T09:08:30;101634.84;;;21.35;56.75
13050;BME280;6591;51.446;5.404;2022-10-31T09:10:58;101644.94;;;21.44;56.99
13050;BME280;6591;51.446;5.404;2022-10-31T09:13:47;101655.00;;;21.53;56.64
13050;BME280;6591;51.446;5.404;2022-10-31T09:16:36;101633.41;;;21.64;56.70
13050;BME280;6591;51.446;5.404;2022-10-31T09:19:05;101621.50;;;21.78;56.79
13050;BME280;6591;51.446;5.404;2022-10-31T09:21:37;101616.09;;;21.89;56.65
13050;BME280;6591;51.446;5.404;2022-10-31T09:24:04;101614.38;;;21.99;56.43
13050;BME280;6591;51.446;5.404;2022-10-31T09:26:33;101609.22;;;22.07;56.89
13050;BME280;6591;51.446;5.404;2022-10-31T09:29:09;101599.50;;;22.16;56.54
13050;BME280;6591;51.446;5.404;2022-10-31T09:31:37;101574.53;;;22.23;56.27
13050;BME280;6591;51.446;5.404;2022-10-31T09:34:29;101567.75;;;22.29;56.16
13050;BME280;6591;51.446;5.404;2022-10-31T09:37:05;101559.38;;;22.32;56.19
13050;BME280;6591;51.446;5.404;2022-10-31T09:39:34;101558.50;;;22.31;55.78
13050;BME280;6591;51.446;5.404;2022-10-31T09:42:53;101582.50;;;22.25;55.74
13050;BME280;6591;51.446;5.404;2022-10-31T09:46:06;101588.78;;;22.25;56.38
13050;BME280;6591;51.446;5.404;2022-10-31T09:52:00;101575.34;;;22.35;56.04
13050;BME280;6591;51.446;5.404;2022-10-31T09:54:50;101577.81;;;22.38;56.26
13050;BME280;6591;51.446;5.404;2022-10-31T09:57:29;101564.75;;;22.43;55.79
13050;BME280;6591;51.446;5.404;2022-10-31T10:00:01;101559.69;;;22.50;55.88
13050;BME280;6591;51.446;5.404;2022-10-31T10:03:19;101556.25;;;22.48;56.04
13050;BME280;6591;51.446;5.404;2022-10-31T10:06:17;101549.34;;;22.55;56.06
13050;BME280;6591;51.446;5.404;2022-10-31T10:09:05;101546.31;;;22.69;56.28
13050;BME280;6591;51.446;5.404;2022-10-31T10:21:09;101532.09;;;23.59;56.84
13050;BME280;6591;51.446;5.404;2022-10-31T10:27:05;101518.81;;;24.06;55.66
13050;BME280;6591;51.446;5.404;2022-10-31T10:29:51;101515.16;;;24.26;55.72
13050;BME280;6591;51.446;5.404;2022-10-31T10:32:28;101508.19;;;24.43;55.15
13050;BME280;6591;51.446;5.404;2022-10-31T10:35:17;101505.31;;;24.54;55.00
13050;BME280;6591;51.446;5.404;2022-10-31T10:37:49;101512.03;;;24.69;54.50
13050;BME280;6591;51.446;5.404;2022-10-31T10:40:24;101521.88;;;24.80;54.56
13050;BME280;6591;51.446;5.404;2022-10-31T10:43:22;101524.75;;;24.88;54.31
13050;BME280;6591;51.446;5.404;2022-10-31T10:46:06;101526.59;;;24.97;54.28
13050;BME280;6591;51.446;5.404;2022-10-31T10:49:18;101513.72;;;24.99;53.80
13050;BME280;6591;51.446;5.404;2022-10-31T10:55:43;101489.53;;;25.06;53.51
13050;BME280;6591;51.446;5.404;2022-10-31T10:58:12;101498.66;;;25.14;53.83
13050;BME280;6591;51.446;5.404;2022-10-31T11:00:45;101505.25;;;25.21;53.20
13050;BME280;6591;51.446;5.404;2022-10-31T11:03:18;101502.63;;;25.29;53.52
13050;BME280;6591;51.446;5.404;2022-10-31T11:05:55;101504.59;;;25.37;53.00
13050;BME280;6591;51.446;5.404;2022-10-31T11:08:33;101500.00;;;25.47;53.18
13050;BME280;6591;51.446;5.404;2022-10-31T11:11:29;101498.25;;;25.56;53.44
13050;BME280;6591;51.446;5.404;2022-10-31T11:14:05;101490.63;;;25.69;52.85
13050;BME280;6591;51.446;5.404;2022-10-31T11:16:36;101487.50;;;25.82;53.07
13050;BME280;6591;51.446;5.404;2022-10-31T11:21:38;101455.75;;;26.00;52.76
13050;BME280;6591;51.446;5.404;2022-10-31T11:24:17;101457.59;;;25.99;52.35
13050;BME280;6591;51.446;5.404;2022-10-31T11:26:47;101453.88;;;26.00;52.13
13050;BME280;6591;51.446;5.404;2022-10-31T11:29:25;101447.72;;;25.98;51.48
13050;BME280;6591;51.446;5.404;2022-10-31T11:31:56;101438.41;;;26.01;51.34
13050;BME280;6591;51.446;5.404;2022-10-31T11:34:37;101433.50;;;26.04;51.75
13050;BME280;6591;51.446;5.404;2022-10-31T11:37:24;101423.84;;;26.10;52.07
13050;BME280;6591;51.446;5.404;2022-10-31T11:40:01;101417.63;;;26.17;51.42
13050;BME280;6591;51.446;5.404;2022-10-31T11:42:39;101403.41;;;26.24;51.27
13050;BME280;6591;51.446;5.404;2022-10-31T11:45:27;101406.22;;;26.32;51.71
13050;BME280;6591;51.446;5.404;2022-10-31T11:47:56;101402.22;;;26.44;51.79
13050;BME280;6591;51.446;5.404;2022-10-31T11:50:34;101398.56;;;26.53;51.34
13050;BME280;6591;51.446;5.404;2022-10-31T11:53:03;101390.78;;;26.66;50.92
13050;BME280;6591;51.446;5.404;2022-10-31T11:55:39;101388.88;;;26.84;51.49
13050;BME280;6591;51.446;5.404;2022-10-31T11:58:23;101386.09;;;27.02;50.89
13050;BME280;6591;51.446;5.404;2022-10-31T12:00:54;101367.78;;;27.20;51.01
13050;BME280;6591;51.446;5.404;2022-10-31T12:03:38;101369.72;;;27.36;50.02
13050;BME280;6591;51.446;5.404;2022-10-31T12:06:16;101358.69;;;27.54;50.59
13050;BME280;6591;51.446;5.404;2022-10-31T12:08:45;101359.44;;;27.72;49.83
13050;BME280;6591;51.446;5.404;2022-10-31T12:17:44;101330.09;;;27.74;48.30
13050;BME280;6591;51.446;5.404;2022-10-31T12:23:18;101314.38;;;27.76;48.59
13050;BME280;6591;51.446;5.404;2022-10-31T12:28:51;101315.75;;;27.80;48.39
13050;BME280;6591;51.446;5.404;2022-10-31T12:43:46;101260.22;;;28.44;47.82
13050;BME280;6591;51.446;5.404;2022-10-31T12:49:51;101248.28;;;28.45;46.84
13050;BME280;6591;51.446;5.404;2022-10-31T12:59:48;101214.03;;;28.18;46.51
13050;BME280;6591;51.446;5.404;2022-10-31T13:02:54;101220.00;;;28.14;46.58
13050;BME280;6591;51.446;5.404;2022-10-31T13:05:48;101213.50;;;28.07;46.11
13050;BME280;6591;51.446;5.404;2022-10-31T13:08:23;101206.84;;;28.09;46.05
13050;BME280;6591;51.446;5.404;2022-10-31T13:11:20;101195.59;;;28.04;45.86
13050;BME280;6591;51.446;5.404;2022-10-31T13:14:07;101193.38;;;28.00;46.03
13050;BME280;6591;51.446;5.404;2022-10-31T13:16:44;101184.66;;;27.96;45.21
13050;BME280;6591;51.446;5.404;2022-10-31T13:19:31;101179.72;;;27.92;45.55
13050;BME280;6591;51.446;5.404;2022-10-31T13:22:07;101171.91;;;27.80;45.41
13050;BME280;6591;51.446;5.404;2022-10-31T13:27:28;101161.50;;;27.76;45.79
13050;BME280;6591;51.446;5.404;2022-10-31T13:30:13;101159.97;;;27.81;45.45
13050;BME280;6591;51.446;5.404;2022-10-31T13:38:30;101139.22;;;28.11;45.73
13050;BME280;6591;51.446;5.404;2022-10-31T13:44:24;101121.09;;;28.27;45.48
13050;BME280;6591;51.446;5.404;2022-10-31T13:46:55;101116.81;;;28.32;45.01
13050;BME280;6591;51.446;5.404;2022-10-31T13:52:17;101109.03;;;28.21;44.31
13050;BME280;6591;51.446;5.404;2022-10-31T13:54:51;101107.47;;;28.18;44.31
13050;BME280;6591;51.446;5.404;2022-10-31T13:57:33;101102.72;;;28.12;43.86
13050;BME280;6591;51.446;5.404;2022-10-31T14:02:55;101101.09;;;27.87;43.74
13050;BME280;6591;51.446;5.404;2022-10-31T14:05:32;101096.34;;;27.73;43.71
13050;BME280;6591;51.446;5.404;2022-10-31T14:08:04;101096.72;;;27.62;43.67
13050;BME280;6591;51.446;5.404;2022-10-31T14:10:38;101082.22;;;27.53;43.86
13050;BME280;6591;51.446;5.404;2022-10-31T14:13:24;101081.34;;;27.45;44.32
13050;BME280;6591;51.446;5.404;2022-10-31T14:16:03;101091.78;;;27.41;44.42
13050;BME280;6591;51.446;5.404;2022-10-31T14:18:36;101088.34;;;27.39;44.51
13050;BME280;6591;51.446;5.404;2022-10-31T14:23:52;101087.69;;;27.37;44.91
13050;BME280;6591;51.446;5.404;2022-10-31T14:34:37;101073.03;;;27.14;44.49
13050;BME280;6591;51.446;5.404;2022-10-31T14:40:30;101059.06;;;26.92;44.14
13050;BME280;6591;51.446;5.404;2022-10-31T14:43:36;101046.94;;;26.79;44.73
13050;BME280;6591;51.446;5.404;2022-10-31T14:49:36;101046.41;;;26.67;45.02
13050;BME280;6591;51.446;5.404;2022-10-31T14:52:08;101034.50;;;26.68;45.00
13050;BME280;6591;51.446;5.404;2022-10-31T14:54:47;101031.59;;;26.70;45.09
13050;BME280;6591;51.446;5.404;2022-10-31T14:57:30;101023.25;;;26.71;44.59
13050;BME280;6591;51.446;5.404;2022-10-31T15:00:04;101019.00;;;26.77;44.50
13050;BME280;6591;51.446;5.404;2022-10-31T15:03:14;101000.44;;;26.72;44.65
13050;BME280;6591;51.446;5.404;2022-10-31T15:05:51;100988.50;;;26.73;45.00
13050;BME280;6591;51.446;5.404;2022-10-31T15:08:38;100984.91;;;26.65;44.33
13050;BME280;6591;51.446;5.404;2022-10-31T15:11:20;100981.34;;;26.56;44.08
13050;BME280;6591;51.446;5.404;2022-10-31T15:13:56;100965.84;;;26.48;44.31
13050;BME280;6591;51.446;5.404;2022-10-31T15:16:32;100968.06;;;26.37;44.51
13050;BME280;6591;51.446;5.404;2022-10-31T15:19:20;100965.16;;;26.22;44.66
13050;BME280;6591;51.446;5.404;2022-10-31T15:21:50;100964.59;;;26.10;44.68
13050;BME280;6591;51.446;5.404;2022-10-31T15:24:18;100961.81;;;26.02;44.58
13050;BME280;6591;51.446;5.404;2022-10-31T15:26:51;100956.69;;;25.91;44.78
13050;BME280;6591;51.446;5.404;2022-10-31T15:29:25;100951.56;;;25.80;44.27
13050;BME280;6591;51.446;5.404;2022-10-31T15:34:44;100939.88;;;25.54;45.00
13050;BME280;6591;51.446;5.404;2022-10-31T15:37:14;100944.56;;;25.44;44.91
13050;BME280;6591;51.446;5.404;2022-10-31T15:39:43;100945.75;;;25.33;45.16
13050;BME280;6591;51.446;5.404;2022-10-31T15:42:27;100936.63;;;25.16;45.19